Time;durP1;ratioP1;P1;durP2;ratioP2;P2;SDS_P1;SDS_P2;PMS_P1;PMS_P2;Temp;Humidity;BMP_temperature;BMP_pressure;BME280_temperature;BME280_humidity;BME280_pressure;Samples;Min_cycle;Max_cycle;Signal;HPM_P1;HPM_P2
2023/10/23 00:03:18;;;;;;;9.38;3.22;;;;;;;11.72;100.00;100313.78;8373127;28;20513;-64
2023/10/23 00:07:19;;;;;;;5.82;3.40;;;;;;;11.70;100.00;100308.50;8387187;28;20041;-63
2023/10/23 00:11:22;;;;;;;4.13;1.73;;;;;;;11.72;100.00;100311.91;8367556;28;20201;-61
2023/10/23 00:15:22;;;;;;;6.72;2.00;;;;;;;11.57;100.00;100313.41;8332274;28;20151;-61
2023/10/23 00:19:23;;;;;;;2.28;1.70;;;;;;;11.63;100.00;100318.25;8332233;28;20289;-61
2023/10/23 00:23:23;;;;;;;9.73;3.50;;;;;;;11.71;100.00;100318.34;8330504;28;20107;-61
2023/10/23 00:27:24;;;;;;;2.97;2.10;;;;;;;11.66;100.00;100323.38;8330900;28;20091;-61
2023/10/23 00:31:24;;;;;;;5.05;2.20;;;;;;;11.61;100.00;100314.81;8313400;28;20127;-61
2023/10/23 00:35:25;;;;;;;6.53;2.28;;;;;;;11.62;100.00;100321.94;8330931;28;20519;-60
2023/10/23 00:39:26;;;;;;;3.40;2.50;;;;;;;11.60;100.00;100339.34;8349769;28;20051;-60
2023/10/23 00:43:27;;;;;;;5.22;2.50;;;;;;;11.53;100.00;100333.66;8387118;28;20048;-60
2023/10/23 00:47:27;;;;;;;5.15;3.17;;;;;;;11.47;100.00;100323.44;8383814;28;20042;-59
2023/10/23 00:51:29;;;;;;;8.55;3.05;;;;;;;11.40;100.00;100327.75;8387977;28;20028;-60
2023/10/23 00:55:30;;;;;;;5.32;3.10;;;;;;;11.48;100.00;100335.13;8386830;28;20499;-59
2023/10/23 00:59:31;;;;;;;5.57;2.83;;;;;;;11.39;100.00;100331.47;8387159;28;20458;-60
2023/10/23 01:03:32;;;;;;;6.22;2.40;;;;;;;11.34;100.00;100322.94;8386195;28;20063;-60
2023/10/23 01:07:33;;;;;;;4.25;2.40;;;;;;;11.34;100.00;100322.94;8388847;28;20110;-64
2023/10/23 01:11:33;;;;;;;5.80;2.20;;;;;;;11.32;100.00;100324.94;8392217;28;20119;-64
2023/10/23 01:15:34;;;;;;;4.85;2.35;;;;;;;11.26;100.00;100327.41;8391364;28;20095;-64
2023/10/23 01:19:35;;;;;;;7.57;2.17;;;;;;;11.19;100.00;100321.72;8392474;28;20036;-64
2023/10/23 01:23:36;;;;;;;6.38;2.05;;;;;;;11.13;100.00;100325.03;8392227;28;20407;-66
2023/10/23 01:27:37;;;;;;;6.53;1.95;;;;;;;11.21;100.00;100325.16;8392093;28;20036;-59
2023/10/23 01:31:37;;;;;;;4.93;2.40;;;;;;;11.24;100.00;100323.97;8392005;28;20040;-58
2023/10/23 01:35:39;;;;;;;4.53;2.22;;;;;;;11.25;100.00;100323.84;8414350;28;20040;-61
2023/10/23 01:39:40;;;;;;;4.45;2.60;;;;;;;11.29;100.00;100325.22;8409309;28;20036;-61
2023/10/23 01:43:40;;;;;;;9.88;3.40;;;;;;;11.21;100.00;100321.56;8356362;28;20268;-61
2023/10/23 01:47:41;;;;;;;2.35;1.95;;;;;;;10.98;100.00;100320.28;8352078;28;20663;-61
2023/10/23 01:51:42;;;;;;;4.05;2.38;;;;;;;10.84;100.00;100329.72;8363939;28;20052;-61
2023/10/23 01:55:43;;;;;;;3.80;2.13;;;;;;;11.00;100.00;100324.50;8367309;28;20123;-61
2023/10/23 01:59:43;;;;;;;4.88;2.45;;;;;;;11.11;100.00;100331.59;8368100;28;20264;-61
2023/10/23 02:03:44;;;;;;;9.18;2.33;;;;;;;11.12;100.00;100333.28;8367758;28;20039;-62
2023/10/23 02:07:45;;;;;;;6.70;2.85;;;;;;;11.10;100.00;100344.25;8372463;28;20090;-60
2023/10/23 02:11:46;;;;;;;4.63;2.35;;;;;;;11.04;100.00;100338.59;8425002;28;20562;-60
2023/10/23 02:15:46;;;;;;;6.50;2.30;;;;;;;11.01;100.00;100334.31;8425095;28;20036;-59
2023/10/23 02:19:47;;;;;;;6.22;2.50;;;;;;;10.96;100.00;100330.38;8425099;28;20043;-59
2023/10/23 02:23:48;;;;;;;4.20;2.28;;;;;;;10.84;100.00;100335.13;8425050;28;20036;-59
2023/10/23 02:27:49;;;;;;;6.10;2.63;;;;;;;10.73;100.00;100332.56;8440313;28;20028;-59
2023/10/23 02:31:49;;;;;;;6.05;2.67;;;;;;;10.55;100.00;100342.41;8424974;28;20119;-58
2023/10/23 02:35:50;;;;;;;9.80;2.60;;;;;;;10.50;100.00;100346.56;8424664;28;20039;-61
2023/10/23 02:39:53;;;;;;;7.80;2.63;;;;;;;10.42;100.00;100347.28;8424679;28;20040;-61
2023/10/23 02:43:53;;;;;;;5.95;2.70;;;;;;;10.45;100.00;100349.69;8424328;28;20118;-61
2023/10/23 02:47:54;;;;;;;7.82;3.20;;;;;;;10.43;100.00;100346.28;8423959;28;20043;-61
2023/10/23 02:51:54;;;;;;;8.82;2.35;;;;;;;10.49;100.00;100334.88;8424614;28;20039;-61
2023/10/23 02:55:55;;;;;;;9.65;4.13;;;;;;;10.32;100.00;100332.94;8423743;28;20390;-58
2023/10/23 02:59:56;;;;;;;4.90;3.00;;;;;;;10.40;100.00;100340.31;8439387;28;20040;-64
2023/10/23 03:03:57;;;;;;;10.60;3.25;;;;;;;10.39;100.00;100336.75;8423859;28;20035;-64
2023/10/23 03:07:57;;;;;;;9.13;3.50;;;;;;;10.33;100.00;100344.56;8416923;28;20036;-61
2023/10/23 03:11:58;;;;;;;7.78;3.72;;;;;;;10.29;100.00;100354.84;8364799;28;20129;-61
2023/10/23 03:15:58;;;;;;;13.23;4.35;;;;;;;10.38;100.00;100343.16;8366907;28;20058;-61
2023/10/23 03:19:59;;;;;;;9.93;3.78;;;;;;;10.28;100.00;100346.88;8368282;28;20373;-62
2023/10/23 03:23:59;;;;;;;7.68;3.47;;;;;;;10.33;100.00;100356.25;8367359;28;20517;-61
2023/10/23 03:28:00;;;;;;;5.63;3.47;;;;;;;10.31;100.00;100344.72;8381740;28;20242;-61
2023/10/23 03:32:00;;;;;;;10.18;3.25;;;;;;;10.20;100.00;100353.00;8400056;27;20051;-61
2023/10/23 03:36:01;;;;;;;6.90;3.30;;;;;;;10.03;100.00;100349.09;8404450;28;20073;-60
2023/10/23 03:40:01;;;;;;;6.05;3.70;;;;;;;10.14;100.00;100350.00;8438219;28;20035;-60
2023/10/23 03:44:03;;;;;;;8.35;4.10;;;;;;;10.09;100.00;100358.50;8456216;28;20047;-62
2023/10/23 03:48:04;;;;;;;10.50;3.80;;;;;;;10.23;100.00;100363.50;8456232;28;20043;-60
2023/10/23 03:52:04;;;;;;;7.55;3.85;;;;;;;10.26;100.00;100360.53;8456549;28;20044;-60
2023/10/23 03:56:06;;;;;;;10.77;3.83;;;;;;;10.36;100.00;100360.50;8455454;28;20031;-60
2023/10/23 04:00:07;;;;;;;7.32;3.28;;;;;;;10.38;100.00;100364.78;8454376;28;20039;-61
2023/10/23 04:04:24;;;;;;;6.40;4.00;;;;;;;10.43;100.00;100362.50;8362709;27;20401;-60
2023/10/23 04:08:24;;;;;;;10.88;3.58;;;;;;;10.41;100.00;100359.09;8349375;28;20037;-61
2023/10/23 04:12:25;;;;;;;13.90;4.05;;;;;;;10.30;100.00;100361.06;8335957;28;20044;-60
2023/10/23 04:16:25;;;;;;;5.70;3.30;;;;;;;10.30;100.00;100361.94;8337461;28;20034;-61
2023/10/23 04:20:26;;;;;;;9.43;4.45;;;;;;;10.22;100.00;100358.25;8353832;28;20042;-59
2023/10/23 04:24:26;;;;;;;9.77;3.97;;;;;;;10.17;100.00;100361.38;8350599;28;20033;-59
2023/10/23 04:28:27;;;;;;;9.63;3.63;;;;;;;10.11;100.00;100361.94;8351268;28;20151;-58
2023/10/23 04:32:28;;;;;;;13.02;3.85;;;;;;;10.07;100.00;100365.94;8349952;28;20061;-58
2023/10/23 04:36:28;;;;;;;9.35;3.60;;;;;;;10.02;100.00;100370.84;8346052;28;20032;-60
2023/10/23 04:40:29;;;;;;;7.55;3.53;;;;;;;10.01;100.00;100353.78;8287339;28;21437;-59
2023/10/23 04:44:29;;;;;;;8.15;3.78;;;;;;;9.93;100.00;100358.19;8296403;28;20049;-60
2023/10/23 04:48:30;;;;;;;11.50;3.45;;;;;;;9.92;100.00;100359.19;8293814;28;20033;-60
2023/10/23 04:52:31;;;;;;;14.07;3.53;;;;;;;9.90;100.00;100363.88;8288623;28;20129;-60
2023/10/23 04:56:31;;;;;;;7.38;3.42;;;;;;;9.91;100.00;100360.16;8297342;28;20032;-59
2023/10/23 05:00:34;;;;;;;10.63;3.30;;;;;;;9.79;100.00;100355.91;8296369;28;20192;-60
2023/10/23 05:04:35;;;;;;;7.10;3.53;;;;;;;9.69;100.00;100355.88;8285539;28;20034;-60
2023/10/23 05:08:35;;;;;;;5.30;3.13;;;;;;;9.72;100.00;100360.16;8347304;28;20037;-58
2023/10/23 05:12:35;;;;;;;10.90;3.70;;;;;;;9.69;100.00;100355.88;8346446;28;20064;-58
2023/10/23 05:16:36;;;;;;;7.30;3.47;;;;;;;9.65;100.00;100348.19;8329157;28;20044;-58
2023/10/23 05:20:36;;;;;;;6.18;3.22;;;;;;;9.68;100.00;100342.53;8318331;28;20448;-58
2023/10/23 05:24:37;;;;;;;11.05;4.32;;;;;;;9.69;100.00;100344.22;8311687;28;20052;-58
2023/10/23 05:28:40;;;;;;;11.70;3.78;;;;;;;9.62;100.00;100332.28;8320963;28;20415;-58
2023/10/23 05:32:40;;;;;;;9.70;3.60;;;;;;;9.52;100.00;100336.81;8337353;28;20461;-58
2023/10/23 05:36:41;;;;;;;5.82;3.08;;;;;;;9.42;100.00;100346.72;8345221;28;20041;-58
2023/10/23 05:40:41;;;;;;;8.45;3.10;;;;;;;9.65;100.00;100348.19;8340459;28;20048;-58
2023/10/23 05:44:41;;;;;;;6.22;3.35;;;;;;;9.58;100.00;100344.34;8335025;28;20052;-58
2023/10/23 05:48:42;;;;;;;12.13;3.95;;;;;;;9.56;100.00;100349.91;8333134;28;20067;-61
2023/10/23 05:52:42;;;;;;;6.55;3.97;;;;;;;9.53;100.00;100346.59;8336823;28;20073;-61
2023/10/23 05:56:44;;;;;;;6.18;3.63;;;;;;;9.62;100.00;100348.47;8336844;28;20458;-60
2023/10/23 06:00:44;;;;;;;13.43;3.90;;;;;;;9.61;100.00;100352.19;8336656;28;20045;-59
2023/10/23 06:04:45;;;;;;;10.38;4.80;;;;;;;9.69;100.00;100347.78;8337767;28;20478;-59
2023/10/23 06:08:45;;;;;;;8.95;4.78;;;;;;;9.67;100.00;100346.22;8339413;28;20037;-61
2023/10/23 06:12:46;;;;;;;9.13;4.57;;;;;;;9.69;100.00;100345.09;8298046;28;20060;-60
2023/10/23 06:16:46;;;;;;;15.05;4.78;;;;;;;9.73;100.00;100345.69;8301949;28;20049;-61
2023/10/23 06:20:47;;;;;;;7.00;4.75;;;;;;;9.70;100.00;100345.94;8338372;28;20132;-61
2023/10/23 06:24:47;;;;;;;9.25;4.75;;;;;;;9.69;100.00;100355.03;8341415;28;20487;-62
2023/10/23 06:28:48;;;;;;;10.73;5.22;;;;;;;9.71;100.00;100363.84;8342413;28;20044;-61
2023/10/23 06:32:48;;;;;;;10.93;6.72;;;;;;;9.72;100.00;100365.53;8343972;28;20522;-61
2023/10/23 06:36:49;;;;;;;15.73;7.57;;;;;;;9.81;100.00;100365.56;8341306;28;20368;-61
2023/10/23 06:40:49;;;;;;;20.33;9.68;;;;;;;9.86;100.00;100367.84;8339917;28;20044;-61
2023/10/23 06:44:50;;;;;;;24.95;10.52;;;;;;;9.91;100.00;100365.56;8344703;28;20044;-61
2023/10/23 06:48:50;;;;;;;30.17;13.30;;;;;;;10.08;100.00;100364.91;8341675;28;20446;-61
2023/10/23 06:52:50;;;;;;;17.70;8.32;;;;;;;10.20;100.00;100374.59;8340681;28;20052;-61
2023/10/23 06:56:51;;;;;;;27.75;11.10;;;;;;;10.29;100.00;100376.44;8336069;28;20039;-61
2023/10/23 07:00:52;;;;;;;38.63;16.88;;;;;;;10.42;100.00;100371.59;8339857;28;20049;-60
2023/10/23 07:04:52;;;;;;;13.10;5.45;;;;;;;10.53;100.00;100379.56;8342001;28;20120;-60
2023/10/23 07:08:53;;;;;;;8.40;4.93;;;;;;;10.54;100.00;100383.97;8339614;28;20044;-58
2023/10/23 07:12:55;;;;;;;14.70;8.10;;;;;;;10.58;100.00;100376.44;8341811;28;20044;-58
2023/10/23 07:16:55;;;;;;;10.60;4.88;;;;;;;10.63;100.00;100375.00;8339356;28;20037;-57
2023/10/23 07:20:59;;;;;;;6.70;3.72;;;;;;;10.73;100.00;100370.41;8342239;28;20044;-58
2023/10/23 07:24:59;;;;;;;14.05;4.60;;;;;;;10.88;100.00;100379.78;8336600;28;20045;-59
2023/10/23 07:29:00;;;;;;;8.20;4.82;;;;;;;10.92;100.00;100370.38;8339963;28;20044;-59
2023/10/23 07:33:00;;;;;;;9.98;6.00;;;;;;;10.92;100.00;100364.97;8341312;28;20094;-58
2023/10/23 07:37:03;;;;;;;8.98;5.47;;;;;;;11.01;100.00;100364.09;8338401;28;20107;-58
2023/10/23 07:41:04;;;;;;;9.60;5.82;;;;;;;11.18;100.00;100366.03;8338333;28;20389;-60
2023/10/23 07:45:05;;;;;;;11.70;5.00;;;;;;;11.37;100.00;100338.00;8340110;28;20481;-60
2023/10/23 07:49:05;;;;;;;7.10;4.32;;;;;;;11.70;100.00;100340.16;8340354;28;20484;-60
2023/10/23 07:53:06;;;;;;;12.43;4.00;;;;;;;11.86;100.00;100335.75;8341093;28;20407;-60
2023/10/23 07:57:07;;;;;;;11.50;3.88;;;;;;;11.98;100.00;100338.25;8332401;28;20349;-60
2023/10/23 08:01:10;;;;;;;8.60;3.65;;;;;;;12.10;100.00;100337.88;8337116;28;20033;-58
2023/10/23 08:05:11;;;;;;;7.10;3.42;;;;;;;12.17;100.00;100343.53;8354047;28;20408;-59
2023/10/23 08:09:11;;;;;;;5.90;3.30;;;;;;;12.31;100.00;100329.41;8345842;28;20132;-61
2023/10/23 08:13:12;;;;;;;5.20;2.85;;;;;;;12.42;100.00;100326.47;8342785;28;20037;-61
2023/10/23 08:17:12;;;;;;;7.57;2.88;;;;;;;12.55;100.00;100343.19;8339145;28;20044;-61
2023/10/23 08:21:14;;;;;;;10.82;3.30;;;;;;;12.49;100.00;100332.94;8337274;28;20048;-60
2023/10/23 08:25:15;;;;;;;6.85;3.22;;;;;;;12.52;100.00;100332.63;8332651;28;20034;-59
2023/10/23 08:29:15;;;;;;;8.25;3.08;;;;;;;12.73;100.00;100335.84;8338116;28;20045;-59
2023/10/23 08:33:16;;;;;;;11.55;3.90;;;;;;;12.90;100.00;100343.13;8350970;28;20092;-60
2023/10/23 08:37:17;;;;;;;8.52;3.15;;;;;;;13.08;100.00;100335.75;8333961;28;20053;-59
2023/10/23 08:41:17;;;;;;;9.80;3.40;;;;;;;13.07;100.00;100345.78;8333093;28;20037;-59
2023/10/23 08:45:18;;;;;;;11.25;4.57;;;;;;;12.92;100.00;100335.66;8334734;28;20072;-60
2023/10/23 08:49:18;;;;;;;10.07;5.22;;;;;;;12.90;100.00;100329.53;8336546;28;20122;-60
2023/10/23 08:53:22;;;;;;;9.63;5.97;;;;;;;12.93;100.00;100329.22;8346392;28;20119;-59
2023/10/23 08:57:24;;;;;;;18.08;7.45;;;;;;;12.90;100.00;100337.69;8343614;28;20057;-60
2023/10/23 09:01:27;;;;;;;13.77;8.00;;;;;;;12.78;100.00;100333.53;8339861;28;20045;-60
2023/10/23 09:05:27;;;;;;;13.75;8.02;;;;;;;12.84;100.00;100328.28;8345691;28;20037;-60
2023/10/23 09:09:28;;;;;;;15.75;9.07;;;;;;;12.89;100.00;100333.25;8344992;28;20549;-59
2023/10/23 09:13:34;;;;;;;14.70;9.15;;;;;;;12.84;100.00;100332.91;8343208;28;20056;-59
2023/10/23 09:17:37;;;;;;;23.13;10.40;;;;;;;12.87;100.00;100319.00;8338350;28;20041;-58
2023/10/23 09:21:38;;;;;;;20.98;10.38;;;;;;;12.83;100.00;100320.31;8341769;28;20207;-60
2023/10/23 09:25:38;;;;;;;19.58;9.95;;;;;;;12.98;100.00;100318.72;8345083;28;20060;-60
2023/10/23 09:29:38;;;;;;;18.85;9.70;;;;;;;13.01;100.00;100310.28;8345230;28;20045;-58
2023/10/23 09:33:39;;;;;;;15.85;10.20;;;;;;;13.11;100.00;100313.72;8342608;28;20518;-58
2023/10/23 09:37:40;;;;;;;19.00;10.10;;;;;;;13.13;100.00;100306.28;8344245;28;20041;-58
2023/10/23 09:41:41;;;;;;;17.48;9.63;;;;;;;13.13;100.00;100303.56;8322112;28;20129;-59
2023/10/23 09:45:42;;;;;;;18.13;9.13;;;;;;;13.36;100.00;100296.56;8308133;28;20045;-58
2023/10/23 09:49:43;;;;;;;15.55;9.43;;;;;;;13.50;100.00;100287.78;8338367;28;20037;-61
2023/10/23 09:53:48;;;;;;;14.20;10.02;;;;;;;13.71;100.00;100290.91;8328420;28;20036;-60
2023/10/23 09:57:53;;;;;;;20.52;11.43;;;;;;;13.73;100.00;100300.56;8310807;28;20038;-60
2023/10/23 10:01:57;;;;;;;;;;;;;;;13.74;100.00;100290.56;8322805;28;20121;-60
2023/10/23 10:06:00;;;;;;;;;;;;;;;13.85;100.00;100292.97;8327687;28;19917;-59
2023/10/23 10:10:05;;;;;;;15.65;8.88;;;;;;;14.07;100.00;100280.59;8324135;28;19917;-60
2023/10/23 10:14:07;;;;;;;15.30;9.23;;;;;;;14.37;100.00;100280.81;8329988;28;20068;-60
2023/10/23 10:18:07;;;;;;;12.23;7.82;;;;;;;14.63;99.71;100262.41;8316782;28;20038;-60
2023/10/23 10:22:22;;;;;;;13.73;6.63;;;;;;;14.95;98.56;100256.06;8321435;28;20046;-60
2023/10/23 10:26:23;;;;;;;6.60;4.93;;;;;;;15.03;97.04;100256.88;8312128;28;20044;-60
2023/10/23 10:30:45;;;;;;;7.82;5.13;;;;;;;14.70;96.91;100249.81;8313275;28;20030;-61
2023/10/23 10:38:59;;;;;;;7.35;3.85;;;;;;;14.98;97.14;100240.19;8420589;27;20476;-60
2023/10/23 10:43:05;;;;;;;9.57;4.00;;;;;;;14.82;96.29;100234.00;8397175;27;20048;-58
2023/10/23 10:47:12;;;;;;;4.90;3.58;;;;;;;15.04;95.20;100228.59;8360331;28;20033;-59
2023/10/23 10:51:19;;;;;;;7.90;3.50;;;;;;;15.22;97.35;100242.84;8360398;28;20215;-60
2023/10/23 10:55:20;;;;;;;6.80;3.03;;;;;;;15.20;96.01;100223.13;8363079;28;20408;-60
2023/10/23 10:59:26;;;;;;;6.03;3.40;;;;;;;15.15;95.91;100217.34;8369371;28;20116;-61
2023/10/23 11:03:26;;;;;;;10.65;3.40;;;;;;;15.23;96.40;100217.31;8386452;28;20041;-60
2023/10/23 11:07:27;;;;;;;8.05;3.40;;;;;;;15.19;94.59;100204.22;8366908;28;20041;-60
2023/10/23 11:11:27;;;;;;;7.53;2.78;;;;;;;15.35;97.13;100196.81;8366377;28;20037;-60
2023/10/23 11:15:28;;;;;;;6.75;2.85;;;;;;;15.35;96.01;100196.81;8368598;28;20060;-60
2023/10/23 11:19:29;;;;;;;9.40;3.35;;;;;;;15.31;94.24;100191.91;8361032;28;20392;-60
2023/10/23 11:23:30;;;;;;;9.10;3.00;;;;;;;15.30;94.82;100185.59;8364675;28;20055;-59
2023/10/23 11:27:31;;;;;;;10.45;3.15;;;;;;;15.39;94.43;100173.66;8365151;28;20041;-59
2023/10/23 11:31:31;;;;;;;5.00;2.60;;;;;;;15.36;94.78;100157.66;8375117;28;20482;-59
2023/10/23 11:35:33;;;;;;;6.93;3.20;;;;;;;15.39;94.27;100146.44;8397255;28;20491;-59
2023/10/23 11:39:36;;;;;;;6.53;3.33;;;;;;;15.35;94.76;100139.63;8387353;28;20041;-59
2023/10/23 11:43:38;;;;;;;8.75;3.47;;;;;;;15.46;96.63;100135.63;8399358;28;20447;-58
2023/10/23 11:47:40;;;;;;;8.90;4.28;;;;;;;15.37;94.60;100132.13;8387458;28;20037;-59
2023/10/23 11:51:41;;;;;;;9.02;4.32;;;;;;;15.45;95.48;100118.47;8361495;28;20300;-59
2023/10/23 11:55:44;;;;;;;8.65;3.58;;;;;;;15.41;93.71;100122.56;8374279;28;20503;-59
2023/10/23 11:59:47;;;;;;;9.98;4.30;;;;;;;15.59;95.39;100114.94;8370541;28;20135;-59
2023/10/23 12:03:47;;;;;;;5.88;3.42;;;;;;;15.70;94.12;100109.06;8376062;28;20039;-60
2023/10/23 12:07:50;;;;;;;6.72;2.97;;;;;;;15.84;92.91;100112.88;8374290;28;20041;-60
2023/10/23 12:11:51;;;;;;;9.98;3.35;;;;;;;15.73;91.06;100105.09;8369881;28;20029;-60
2023/10/23 12:15:51;;;;;;;7.20;3.55;;;;;;;15.78;92.46;100102.69;8371090;28;20109;-60
2023/10/23 12:19:52;;;;;;;5.45;3.17;;;;;;;15.86;91.19;100091.72;8392592;28;20125;-60
2023/10/23 12:23:52;;;;;;;7.50;3.30;;;;;;;15.96;90.87;100088.72;8372919;28;20033;-60
2023/10/23 12:27:53;;;;;;;7.55;3.20;;;;;;;15.96;89.47;100083.25;8372793;28;20495;-60
2023/10/23 12:31:53;;;;;;;7.38;2.58;;;;;;;16.10;89.05;100074.28;8354330;28;20041;-60
2023/10/23 12:35:54;;;;;;;8.07;2.95;;;;;;;16.08;90.35;100059.97;8375280;28;20063;-59
2023/10/23 12:39:56;;;;;;;5.63;2.55;;;;;;;16.14;91.38;100048.31;8373454;28;20044;-60
2023/10/23 12:43:57;;;;;;;9.23;2.70;;;;;;;16.02;91.17;100041.63;8370398;28;20495;-59
2023/10/23 12:47:57;;;;;;;9.25;2.65;;;;;;;15.94;90.40;100031.66;8368252;28;20454;-59
2023/10/23 12:51:58;;;;;;;7.68;2.67;;;;;;;15.93;91.49;100027.25;8375854;28;20037;-60
2023/10/23 12:55:58;;;;;;;5.63;2.33;;;;;;;15.99;90.92;100020.19;8373157;28;20032;-59
2023/10/23 12:59:58;;;;;;;7.13;2.17;;;;;;;16.06;92.13;100015.66;8372499;28;20403;-60
2023/10/23 13:03:59;;;;;;;6.18;2.00;;;;;;;16.07;92.26;100006.47;8372336;28;20037;-59
2023/10/23 13:08:00;;;;;;;6.65;1.58;;;;;;;16.16;91.41;99997.16;8373565;28;20064;-59
2023/10/23 13:12:00;;;;;;;7.28;2.08;;;;;;;16.21;90.85;99978.31;8373062;28;20193;-60
2023/10/23 13:16:01;;;;;;;9.93;1.67;;;;;;;16.24;90.44;99976.06;8373740;28;20044;-60
2023/10/23 13:20:06;;;;;;;9.00;3.05;;;;;;;16.38;90.35;99968.91;8373456;28;20518;-60
2023/10/23 13:24:08;;;;;;;5.45;1.90;;;;;;;16.51;89.01;99952.72;8371466;28;20040;-60
2023/10/23 13:28:09;;;;;;;4.20;2.15;;;;;;;16.61;88.65;99953.25;8368470;28;20033;-60
2023/10/23 13:32:11;;;;;;;10.57;2.25;;;;;;;16.58;87.58;99942.72;8374974;28;20542;-61
2023/10/23 13:36:12;;;;;;;6.05;1.67;;;;;;;16.50;88.52;99930.03;8338384;28;20076;-61
2023/10/23 13:40:12;;;;;;;9.25;1.90;;;;;;;16.43;87.88;99930.97;8341337;28;20053;-61
2023/10/23 13:44:13;;;;;;;14.23;2.92;;;;;;;16.36;90.16;99910.94;8329328;28;20048;-60
2023/10/23 13:48:13;;;;;;;9.07;1.85;;;;;;;16.27;91.82;99901.19;8339358;28;20041;-60
2023/10/23 13:52:13;;;;;;;8.90;2.15;;;;;;;16.14;92.00;99895.56;8334429;28;20458;-60
2023/10/23 13:56:14;;;;;;;4.85;1.42;;;;;;;16.14;92.17;99884.66;8333647;28;20038;-62
2023/10/23 14:00:15;;;;;;;3.22;1.40;;;;;;;16.10;93.49;99883.38;8336394;28;20128;-61
2023/10/23 14:04:15;;;;;;;5.10;1.48;;;;;;;16.08;93.41;99879.97;8367942;28;20044;-60
2023/10/23 14:08:16;;;;;;;6.35;1.30;;;;;;;16.08;93.57;99864.47;8368522;28;20051;-61
2023/10/23 14:12:16;;;;;;;3.60;1.08;;;;;;;16.06;93.92;99860.22;8365036;28;20066;-60
2023/10/23 14:16:17;;;;;;;5.70;1.38;;;;;;;16.02;94.49;99857.06;8372377;28;20033;-61
2023/10/23 14:20:17;;;;;;;4.07;1.52;;;;;;;16.08;93.96;99855.44;8369140;28;20537;-60
2023/10/23 14:24:20;;;;;;;2.63;1.00;;;;;;;16.05;93.70;99842.19;8363176;28;20040;-60
2023/10/23 14:28:20;;;;;;;3.83;1.10;;;;;;;16.07;93.68;99830.03;8358169;28;20474;-60
2023/10/23 14:32:21;;;;;;;5.93;1.15;;;;;;;16.05;94.21;99836.72;8344059;28;20129;-60
2023/10/23 14:36:21;;;;;;;2.72;0.93;;;;;;;16.09;94.24;99832.56;8338001;28;20370;-60
2023/10/23 14:40:22;;;;;;;5.72;1.20;;;;;;;16.10;93.81;99828.84;8348018;28;20044;-60
2023/10/23 14:44:23;;;;;;;5.55;0.95;;;;;;;16.12;92.79;99807.66;8365901;28;20037;-60
2023/10/23 14:48:24;;;;;;;5.35;1.45;;;;;;;16.14;93.22;99805.59;8334975;28;20037;-58
2023/10/23 14:52:24;;;;;;;5.70;1.83;;;;;;;16.05;95.06;99787.66;8339943;28;20068;-59
2023/10/23 14:56:25;;;;;;;8.73;1.58;;;;;;;15.92;95.40;99791.06;8337529;28;20099;-59
2023/10/23 15:00:25;;;;;;;4.97;1.23;;;;;;;15.85;97.41;99771.06;8327929;28;20076;-60
2023/10/23 15:04:26;;;;;;;6.10;1.60;;;;;;;15.83;97.85;99777.75;8332425;28;20384;-59
2023/10/23 15:08:26;;;;;;;10.10;1.85;;;;;;;15.74;99.17;99766.97;8362348;28;20047;-60
2023/10/23 15:12:27;;;;;;;5.18;2.05;;;;;;;15.69;99.46;99761.25;8365161;28;20356;-58
2023/10/23 15:16:29;;;;;;;3.92;1.58;;;;;;;15.64;100.00;99752.81;8361400;28;20033;-60
2023/10/23 15:20:30;;;;;;;8.98;2.60;;;;;;;15.71;97.46;99756.44;8363654;28;20094;-60
2023/10/23 15:24:30;;;;;;;8.88;3.45;;;;;;;15.65;98.63;99759.94;8369729;28;20495;-60
2023/10/23 15:28:32;;;;;;;8.45;3.50;;;;;;;15.56;100.00;99755.63;8368227;28;20098;-60
2023/10/23 15:32:32;;;;;;;12.50;3.10;;;;;;;15.50;100.00;99755.56;8374334;28;20036;-60
2023/10/23 15:36:33;;;;;;;10.00;3.80;;;;;;;15.38;100.00;99752.50;8368082;28;20061;-60
2023/10/23 15:40:33;;;;;;;8.02;2.30;;;;;;;15.27;100.00;99752.94;8370717;28;20060;-59
2023/10/23 15:44:34;;;;;;;8.70;2.13;;;;;;;15.19;100.00;99742.13;8366579;28;20043;-59
2023/10/23 15:48:34;;;;;;;13.45;2.20;;;;;;;15.09;100.00;99741.56;8369748;28;20036;-59
2023/10/23 15:52:35;;;;;;;15.23;2.38;;;;;;;15.00;100.00;99745.41;8374321;28;20113;-59
2023/10/23 15:56:38;;;;;;;9.82;2.35;;;;;;;14.96;100.00;99759.59;8372276;28;20040;-58
2023/10/23 16:00:38;;;;;;;12.57;3.15;;;;;;;14.96;100.00;99770.47;8357462;28;20036;-59
2023/10/23 16:04:39;;;;;;;7.57;3.30;;;;;;;14.80;100.00;99763.34;8373086;28;20041;-59
2023/10/23 16:08:39;;;;;;;7.63;2.90;;;;;;;14.76;100.00;99777.50;8370492;28;20124;-59
2023/10/23 16:12:42;;;;;;;14.05;3.13;;;;;;;14.64;100.00;99774.38;8364986;28;20055;-60
2023/10/23 16:16:43;;;;;;;9.52;3.97;;;;;;;14.59;100.00;99774.09;8354834;28;20036;-59
2023/10/23 16:20:48;;;;;;;12.18;2.63;;;;;;;14.59;100.00;99774.09;8361115;28;20592;-61
2023/10/23 16:24:49;;;;;;;11.52;3.45;;;;;;;14.58;100.00;99769.66;8366882;28;20454;-60
2023/10/23 16:28:49;;;;;;;11.70;3.42;;;;;;;14.52;100.00;99767.69;8368747;28;20135;-60
2023/10/23 16:32:53;;;;;;;7.78;2.85;;;;;;;14.50;100.00;99761.59;8366656;28;20045;-61
2023/10/23 16:36:53;;;;;;;7.28;4.55;;;;;;;14.49;100.00;99765.31;8371044;28;20109;-60
2023/10/23 16:40:53;;;;;;;9.68;5.85;;;;;;;14.49;100.00;99757.16;8371232;28;20056;-60
2023/10/23 16:44:54;;;;;;;8.70;3.97;;;;;;;14.43;100.00;99755.22;8363170;28;20070;-60
2023/10/23 16:48:54;;;;;;;16.13;6.13;;;;;;;14.37;100.00;99739.63;8366212;28;20033;-60
2023/10/23 16:52:58;;;;;;;12.35;3.42;;;;;;;14.42;100.00;99726.31;8370559;28;20494;-60
2023/10/23 16:56:59;;;;;;;14.23;4.40;;;;;;;14.38;100.00;99697.81;8363816;28;20167;-61
2023/10/23 17:01:04;;;;;;;13.52;3.60;;;;;;;14.38;100.00;99667.88;8369971;28;20036;-60
2023/10/23 17:05:05;;;;;;;12.07;3.55;;;;;;;14.37;100.00;99658.06;8369532;28;20119;-60
2023/10/23 17:09:05;;;;;;;9.93;2.83;;;;;;;14.34;100.00;99658.44;8369006;28;20561;-61
2023/10/23 17:13:06;;;;;;;11.57;2.75;;;;;;;14.40;100.00;99640.50;8370297;28;20037;-59
2023/10/23 17:17:06;;;;;;;11.50;2.40;;;;;;;14.42;100.00;99633.84;8361702;28;20040;-62
2023/10/23 17:21:06;;;;;;;10.18;2.85;;;;;;;14.40;100.00;99614.16;8341331;28;20045;-62
2023/10/23 17:25:07;;;;;;;8.85;2.25;;;;;;;14.48;100.00;99624.94;8331462;28;20431;-62
2023/10/23 17:29:09;;;;;;;6.32;2.38;;;;;;;14.47;100.00;99612.38;8329234;28;20029;-62
2023/10/23 17:33:10;;;;;;;8.60;2.42;;;;;;;14.52;100.00;99618.09;8371023;28;20471;-63
2023/10/23 17:37:10;;;;;;;9.60;2.30;;;;;;;14.51;100.00;99613.69;8367369;28;20048;-62
2023/10/23 17:41:14;;;;;;;9.65;2.50;;;;;;;14.56;100.00;99616.69;8366204;28;20119;-61
2023/10/23 17:45:15;;;;;;;9.80;3.40;;;;;;;14.53;100.00;99603.47;8362658;28;20041;-60
2023/10/23 17:49:18;;;;;;;8.27;2.83;;;;;;;14.56;100.00;99608.53;8337328;28;20041;-60
2023/10/23 17:53:19;;;;;;;6.32;2.38;;;;;;;14.62;100.00;99612.38;8334445;28;20048;-60
2023/10/23 17:57:20;;;;;;;5.82;2.30;;;;;;;14.60;100.00;99598.09;8350645;28;20048;-59
2023/10/23 18:01:21;;;;;;;13.35;3.08;;;;;;;14.55;100.00;99584.25;8365433;28;20083;-59
2023/10/23 18:05:22;;;;;;;7.68;2.60;;;;;;;14.60;100.00;99573.63;8365788;28;20355;-61
2023/10/23 18:09:22;;;;;;;8.50;2.17;;;;;;;14.60;100.00;99571.75;8369862;28;20451;-61
2023/10/23 18:13:23;;;;;;;12.15;2.65;;;;;;;14.53;100.00;99576.28;8365777;28;20037;-61
2023/10/23 18:17:24;;;;;;;10.18;2.50;;;;;;;14.57;100.00;99574.00;8345671;28;20449;-61
2023/10/23 18:21:24;;;;;;;10.32;2.83;;;;;;;14.59;100.00;99571.94;8330310;28;20042;-61
2023/10/23 18:25:26;;;;;;;8.75;2.50;;;;;;;14.60;100.00;99550.00;8333273;28;20585;-61
2023/10/23 18:29:28;;;;;;;11.63;3.10;;;;;;;14.52;100.00;99552.81;8347061;28;20402;-61
2023/10/23 18:33:29;;;;;;;15.13;3.08;;;;;;;14.59;100.00;99561.06;8368406;28;20041;-61
2023/10/23 18:37:29;;;;;;;9.13;3.42;;;;;;;14.61;100.00;99557.13;8379120;28;20045;-61